Time;durP1;ratioP1;P1;durP2;ratioP2;P2;SDS_P1;SDS_P2;PMS_P1;PMS_P2;Temp;Humidity;BMP_temperature;BMP_pressure;BME280_temperature;BME280_humidity;BME280_pressure;Samples;Min_cycle;Max_cycle;Signal;HPM_P1;HPM_P2
2022/09/05 00:01:14;;;;;;;14.93;7.15;;;19.30;99.90;;;;;;4990378;28;20084;-69
2022/09/05 00:03:46;;;;;;;16.23;7.43;;;19.20;99.90;;;;;;4989861;28;20427;-71
2022/09/05 00:06:15;;;;;;;11.88;6.50;;;19.20;99.90;;;;;;4991753;28;20022;-67
2022/09/05 00:08:45;;;;;;;13.20;7.53;;;19.20;99.90;;;;;;4991950;28;20022;-69
2022/09/05 00:11:24;;;;;;;14.05;7.43;;;19.10;99.90;;;;;;4991910;28;20069;-69
2022/09/05 00:13:55;;;;;;;14.65;7.40;;;19.10;99.90;;;;;;4991940;28;20022;-67
2022/09/05 00:16:43;;;;;;;16.77;7.43;;;19.00;99.90;;;;;;4992072;28;20096;-67
2022/09/05 00:19:35;;;;;;;16.30;6.90;;;19.00;99.90;;;;;;4991028;28;21384;-69
2022/09/05 00:22:06;;;;;;;14.68;6.93;;;18.90;99.90;;;;;;4990365;28;20097;-68
2022/09/05 00:25:10;;;;;;;11.43;6.75;;;18.90;99.90;;;;;;4991740;28;20041;-70
2022/09/05 00:27:56;;;;;;;12.70;5.80;;;18.80;99.90;;;;;;4988937;28;20023;-67
2022/09/05 00:30:21;;;;;;;11.35;5.38;;;18.80;99.90;;;;;;4990149;28;20025;-71
2022/09/05 00:33:09;;;;;;;13.85;6.10;;;18.80;99.90;;;;;;4991994;28;20023;-69
2022/09/05 00:36:01;;;;;;;9.77;5.15;;;18.80;99.90;;;;;;4989369;28;20054;-71
2022/09/05 00:38:27;;;;;;;9.98;5.60;;;18.70;99.90;;;;;;4990992;28;20050;-70
2022/09/05 00:41:03;;;;;;;8.43;4.40;;;18.70;99.90;;;;;;4991691;28;20041;-71
2022/09/05 00:43:33;;;;;;;9.70;4.75;;;18.70;99.90;;;;;;4991397;28;20085;-67
2022/09/05 00:46:04;;;;;;;9.07;4.60;;;18.70;99.90;;;;;;4992829;28;20019;-67
2022/09/05 00:48:45;;;;;;;8.02;4.78;;;18.70;99.90;;;;;;4994956;28;20022;-69
2022/09/05 00:51:22;;;;;;;9.25;4.53;;;18.80;99.90;;;;;;4992268;28;20023;-67
2022/09/05 00:54:01;;;;;;;9.52;4.72;;;18.70;99.90;;;;;;4993469;28;20097;-70
2022/09/05 00:56:54;;;;;;;14.23;4.72;;;18.70;99.90;;;;;;4992269;28;20030;-67
2022/09/05 00:59:23;;;;;;;7.93;4.43;;;18.70;99.90;;;;;;4994678;28;20033;-68
2022/09/05 01:01:59;;;;;;;7.32;4.50;;;18.70;99.90;;;;;;4994806;28;20018;-67
2022/09/05 01:04:43;;;;;;;9.13;4.68;;;18.70;99.90;;;;;;4992666;28;20112;-67
2022/09/05 01:07:26;;;;;;;9.52;4.75;;;18.70;99.90;;;;;;4993218;28;20392;-67
2022/09/05 01:10:03;;;;;;;12.00;5.30;;;18.70;99.90;;;;;;4993607;28;20050;-68
2022/09/05 01:13:21;;;;;;;9.35;4.80;;;18.70;99.90;;;;;;4992465;28;20023;-68
2022/09/05 01:16:04;;;;;;;13.95;4.90;;;18.70;99.90;;;;;;4970989;28;20043;-68
2022/09/05 01:18:54;;;;;;;8.90;4.80;;;18.60;99.90;;;;;;4951512;28;20026;-69
2022/09/05 01:22:04;;;;;;;10.50;5.28;;;18.60;99.90;;;;;;4988474;28;20049;-70
2022/09/05 01:24:38;;;;;;;11.82;5.22;;;18.60;99.90;;;;;;4994304;28;20380;-67
2022/09/05 01:27:44;;;;;;;8.63;5.10;;;18.50;99.90;;;;;;4991014;28;20018;-68
2022/09/05 01:30:22;;;;;;;8.43;4.50;;;18.50;99.90;;;;;;4992920;28;20136;-69
2022/09/05 01:33:02;;;;;;;10.00;4.82;;;18.50;99.90;;;;;;4992583;28;20101;-72
2022/09/05 01:35:48;;;;;;;9.68;4.85;;;18.50;99.90;;;;;;4992353;28;20027;-68
2022/09/05 01:38:49;;;;;;;10.45;4.38;;;18.40;99.90;;;;;;4993431;28;20093;-70
2022/09/05 01:41:36;;;;;;;9.68;4.68;;;18.40;99.90;;;;;;4993074;28;20093;-68
2022/09/05 01:44:32;;;;;;;10.65;5.00;;;18.40;99.90;;;;;;4991535;28;20034;-67
2022/09/05 01:47:19;;;;;;;7.85;4.00;;;18.40;99.90;;;;;;4993990;28;20515;-69
2022/09/05 01:49:59;;;;;;;9.85;4.32;;;18.40;99.90;;;;;;4992210;28;20034;-68
2022/09/05 01:52:32;;;;;;;9.20;4.65;;;18.40;99.90;;;;;;4992258;28;20377;-68
2022/09/05 01:55:30;;;;;;;10.80;5.15;;;18.40;99.90;;;;;;4994288;28;20038;-68
2022/09/05 01:58:14;;;;;;;8.93;4.43;;;18.30;99.90;;;;;;4992993;28;20065;-71
2022/09/05 02:01:13;;;;;;;9.77;4.68;;;18.40;99.90;;;;;;4994355;28;20022;-69
2022/09/05 02:03:44;;;;;;;8.63;4.30;;;18.30;99.90;;;;;;4994189;28;20038;-70
2022/09/05 02:06:39;;;;;;;7.43;4.40;;;18.30;99.90;;;;;;4994370;28;20026;-68
2022/09/05 02:09:23;;;;;;;9.82;4.05;;;18.40;99.90;;;;;;4994127;28;20088;-67
2022/09/05 02:12:25;;;;;;;9.20;4.63;;;18.40;99.90;;;;;;4991241;28;20064;-72
2022/09/05 02:15:06;;;;;;;7.55;3.88;;;18.40;99.90;;;;;;4993691;28;20121;-68
2022/09/05 02:17:40;;;;;;;8.48;3.58;;;18.30;99.90;;;;;;4993381;28;20022;-69
2022/09/05 02:20:27;;;;;;;10.85;4.43;;;18.40;99.90;;;;;;4993438;28;20436;-70
2022/09/05 02:23:13;;;;;;;8.40;4.15;;;18.40;99.90;;;;;;4993765;28;20078;-69
2022/09/05 02:26:10;;;;;;;8.25;4.18;;;18.40;99.90;;;;;;4993932;28;20022;-68
2022/09/05 02:28:51;;;;;;;9.55;3.88;;;18.40;99.90;;;;;;4981520;28;20486;-67
2022/09/05 02:31:28;;;;;;;5.38;3.92;;;18.40;99.90;;;;;;4993876;28;20026;-68
2022/09/05 02:34:15;;;;;;;9.85;4.47;;;18.40;99.90;;;;;;4992542;28;20161;-69
2022/09/05 02:36:50;;;;;;;14.35;6.97;;;18.40;99.90;;;;;;4993535;28;20104;-68
2022/09/05 02:39:36;;;;;;;9.38;4.20;;;18.40;99.90;;;;;;4992804;28;20031;-67
2022/09/05 02:42:26;;;;;;;7.88;4.00;;;18.40;99.90;;;;;;4992772;28;20134;-67
2022/09/05 02:45:08;;;;;;;9.40;4.47;;;18.40;99.90;;;;;;4991126;28;20137;-68
2022/09/05 02:47:44;;;;;;;9.35;5.13;;;18.30;99.90;;;;;;4993689;28;20106;-69
2022/09/05 02:50:39;;;;;;;9.02;4.10;;;18.30;99.90;;;;;;4993092;28;20026;-70
2022/09/05 02:53:09;;;;;;;10.90;5.13;;;18.30;99.90;;;;;;4957287;28;20119;-68
2022/09/05 02:56:03;;;;;;;14.77;6.55;;;18.30;99.90;;;;;;4992988;28;20112;-69
2022/09/05 02:58:34;;;;;;;18.15;8.80;;;18.30;99.90;;;;;;4985502;28;20333;-70
2022/09/05 03:01:10;;;;;;;10.40;5.28;;;18.30;99.90;;;;;;4992310;28;20034;-72
2022/09/05 03:03:45;;;;;;;7.28;4.40;;;18.30;99.90;;;;;;4992361;28;20034;-69
2022/09/05 03:06:44;;;;;;;10.05;5.05;;;18.20;99.90;;;;;;4993285;28;20018;-68
2022/09/05 03:09:25;;;;;;;9.38;4.35;;;18.30;99.90;;;;;;4991501;28;20376;-70
2022/09/05 03:12:20;;;;;;;11.00;4.47;;;18.30;99.90;;;;;;4992999;28;20050;-67
2022/09/05 03:15:30;;;;;;;11.15;4.68;;;18.20;99.90;;;;;;4992771;28;20392;-67
2022/09/05 03:18:40;;;;;;;8.88;4.35;;;18.30;99.90;;;;;;4973271;28;20434;-67
2022/09/05 03:21:15;;;;;;;10.55;4.30;;;18.20;99.90;;;;;;4946024;28;20034;-68
2022/09/05 03:23:56;;;;;;;11.20;4.80;;;18.20;99.90;;;;;;4992747;28;20038;-67
2022/09/05 03:26:59;;;;;;;8.90;4.65;;;18.20;99.90;;;;;;4993299;28;20030;-69
2022/09/05 03:29:27;;;;;;;9.30;4.60;;;18.20;99.90;;;;;;4992997;28;20515;-68
2022/09/05 03:32:02;;;;;;;10.10;4.15;;;18.20;99.90;;;;;;4993070;28;20022;-68
2022/09/05 03:34:42;;;;;;;9.23;4.90;;;18.10;99.90;;;;;;4992739;28;20026;-67
2022/09/05 03:37:35;;;;;;;12.18;5.70;;;18.20;99.90;;;;;;4992996;28;20069;-69
2022/09/05 03:40:36;;;;;;;8.88;4.43;;;18.10;99.90;;;;;;4992984;28;20034;-69
2022/09/05 03:43:24;;;;;;;8.98;4.60;;;18.10;99.90;;;;;;4992680;28;20042;-71
2022/09/05 03:46:02;;;;;;;10.30;4.40;;;18.10;99.90;;;;;;4992832;28;20466;-67
2022/09/05 03:48:48;;;;;;;11.35;4.80;;;18.10;99.90;;;;;;4992527;28;20162;-69
2022/09/05 03:51:49;;;;;;;9.25;4.35;;;18.10;99.90;;;;;;4992770;28;20022;-66
2022/09/05 03:54:20;;;;;;;11.13;4.45;;;18.00;99.90;;;;;;4976899;28;20046;-71
2022/09/05 03:57:01;;;;;;;9.43;5.00;;;18.10;99.90;;;;;;4992449;28;20022;-67
2022/09/05 03:59:46;;;;;;;9.35;4.32;;;18.00;99.90;;;;;;4992417;28;20563;-68
2022/09/05 04:02:16;;;;;;;7.80;4.50;;;18.00;99.90;;;;;;4992621;28;20101;-72
2022/09/05 04:04:45;;;;;;;10.07;4.38;;;18.00;99.90;;;;;;4991304;28;20420;-68
2022/09/05 04:07:21;;;;;;;10.23;4.78;;;18.00;99.90;;;;;;4992655;28;20449;-69
2022/09/05 04:10:03;;;;;;;11.80;4.60;;;18.00;99.90;;;;;;4993936;28;20042;-69
2022/09/05 04:12:47;;;;;;;8.43;4.38;;;18.00;99.90;;;;;;4992578;28;20022;-70
2022/09/05 04:15:33;;;;;;;10.73;4.60;;;18.00;99.90;;;;;;4992242;28;20031;-68
2022/09/05 04:18:03;;;;;;;11.90;6.32;;;18.00;99.90;;;;;;4992816;28;20023;-68
2022/09/05 04:20:40;;;;;;;9.40;4.70;;;18.00;99.90;;;;;;4994443;28;20028;-68
2022/09/05 04:23:46;;;;;;;7.93;5.05;;;18.00;99.90;;;;;;4996317;28;20038;-68
2022/09/05 04:26:37;;;;;;;10.07;4.70;;;18.00;99.90;;;;;;4955031;29;20063;-68
2022/09/05 04:29:34;;;;;;;9.95;4.90;;;18.00;99.90;;;;;;4996468;28;20046;-68
2022/09/05 04:32:01;;;;;;;13.50;5.60;;;18.00;99.90;;;;;;4987334;28;20048;-67
2022/09/05 04:34:54;;;;;;;12.10;5.75;;;18.00;99.90;;;;;;4996188;28;20160;-68
2022/09/05 04:37:55;;;;;;;11.65;6.10;;;18.00;99.90;;;;;;4995948;28;20050;-67
2022/09/05 04:40:46;;;;;;;10.02;5.13;;;18.00;99.90;;;;;;4988701;28;20038;-68
2022/09/05 04:43:17;;;;;;;10.85;5.25;;;18.00;99.90;;;;;;4995609;28;20532;-66
2022/09/05 04:46:20;;;;;;;11.18;5.80;;;18.00;99.90;;;;;;4996123;28;20030;-68
2022/09/05 04:48:49;;;;;;;11.57;6.10;;;18.00;99.90;;;;;;4995827;28;20027;-71
2022/09/05 04:51:48;;;;;;;11.15;5.93;;;18.00;99.90;;;;;;4995904;28;20022;-68
2022/09/05 04:54:27;;;;;;;15.18;5.93;;;18.00;99.90;;;;;;4995547;28;20038;-67
2022/09/05 04:57:09;;;;;;;14.82;5.90;;;18.00;99.90;;;;;;4995687;28;20029;-67
2022/09/05 04:59:46;;;;;;;10.20;5.32;;;18.10;99.90;;;;;;4995740;28;20014;-67
2022/09/05 05:02:37;;;;;;;12.20;6.10;;;18.10;99.90;;;;;;4995454;28;20398;-67
2022/09/05 05:05:10;;;;;;;11.82;5.53;;;18.10;99.90;;;;;;4995812;28;20487;-67
2022/09/05 05:07:59;;;;;;;11.07;5.60;;;18.10;99.90;;;;;;4996125;28;20472;-68
2022/09/05 05:10:46;;;;;;;12.02;5.70;;;18.10;99.90;;;;;;4995450;28;20077;-67
2022/09/05 05:13:24;;;;;;;11.35;6.15;;;18.10;99.90;;;;;;4996001;28;20029;-68
2022/09/05 05:16:03;;;;;;;10.65;5.80;;;18.10;99.90;;;;;;4995755;28;20404;-67
2022/09/05 05:18:40;;;;;;;11.07;5.72;;;18.10;99.90;;;;;;4995361;28;20026;-69
2022/09/05 05:21:16;;;;;;;15.57;6.13;;;18.20;99.90;;;;;;4995803;28;20058;-67
2022/09/05 05:23:48;;;;;;;10.77;6.32;;;18.20;99.90;;;;;;4993986;28;20085;-71
2022/09/05 05:26:41;;;;;;;12.82;5.90;;;18.30;99.90;;;;;;4995494;28;20033;-67
2022/09/05 05:29:32;;;;;;;15.65;6.18;;;18.30;99.90;;;;;;4993748;28;20076;-72
2022/09/05 05:32:00;;;;;;;13.20;7.15;;;18.30;99.90;;;;;;4995389;28;20038;-68
2022/09/05 05:34:34;;;;;;;13.05;6.43;;;18.40;99.90;;;;;;4994919;28;20076;-70
2022/09/05 05:37:10;;;;;;;11.50;6.43;;;18.40;99.90;;;;;;4995363;28;20138;-68
2022/09/05 05:39:43;;;;;;;10.40;6.13;;;18.50;99.90;;;;;;4995709;28;20030;-68
2022/09/05 05:42:19;;;;;;;14.10;6.70;;;18.60;99.90;;;;;;4994578;28;20036;-69
2022/09/05 05:44:51;;;;;;;10.90;6.68;;;18.60;99.90;;;;;;4994741;28;20046;-70
2022/09/05 05:47:31;;;;;;;10.85;6.15;;;18.70;99.90;;;;;;4995028;28;20018;-68
2022/09/05 05:50:02;;;;;;;14.85;6.82;;;18.80;99.90;;;;;;4993735;28;20061;-68
2022/09/05 05:52:27;;;;;;;18.13;7.45;;;18.90;99.90;;;;;;4993481;28;20026;-68
2022/09/05 05:55:35;;;;;;;15.73;7.35;;;18.90;99.90;;;;;;4993433;28;20428;-67
2022/09/05 05:58:19;;;;;;;14.32;6.60;;;19.00;99.90;;;;;;4953604;29;20027;-68
2022/09/05 06:00:53;;;;;;;17.25;7.75;;;19.00;99.90;;;;;;4991473;28;20040;-70
2022/09/05 06:03:37;;;;;;;14.18;7.53;;;19.10;99.90;;;;;;4994563;28;20030;-68
2022/09/05 06:06:11;;;;;;;14.15;7.22;;;19.30;99.90;;;;;;4994758;28;20043;-66
2022/09/05 06:09:03;;;;;;;17.10;8.07;;;19.40;99.90;;;;;;4994836;28;20098;-67
2022/09/05 06:12:05;;;;;;;17.27;8.38;;;19.50;99.90;;;;;;4993517;28;20100;-68
2022/09/05 06:15:07;;;;;;;16.25;7.65;;;19.60;99.90;;;;;;4994451;28;20014;-68
2022/09/05 06:18:09;;;;;;;16.05;7.63;;;19.80;99.90;;;;;;4993905;28;20405;-66
2022/09/05 06:20:38;;;;;;;16.42;8.27;;;20.00;99.90;;;;;;4994219;28;20026;-68
2022/09/05 06:23:18;;;;;;;17.40;8.45;;;20.10;99.90;;;;;;4991846;28;20498;-68
2022/09/05 06:26:19;;;;;;;16.55;8.82;;;20.40;99.90;;;;;;4992195;28;20046;-68
2022/09/05 06:29:11;;;;;;;16.45;7.30;;;20.50;99.90;;;;;;4991560;28;20065;-67
2022/09/05 06:32:04;;;;;;;14.50;7.70;;;20.80;99.90;;;;;;4994353;28;20106;-67
2022/09/05 06:35:01;;;;;;;12.77;7.45;;;20.90;99.90;;;;;;4994152;28;20023;-67
2022/09/05 06:38:01;;;;;;;18.33;8.48;;;21.20;99.90;;;;;;4992214;28;20503;-68
2022/09/05 06:40:34;;;;;;;16.88;7.70;;;21.40;99.90;;;;;;4970129;28;20392;-67
2022/09/05 06:43:27;;;;;;;14.25;7.28;;;21.70;99.90;;;;;;4992138;28;20023;-68
2022/09/05 06:46:22;;;;;;;15.88;7.63;;;21.80;99.90;;;;;;4992542;28;20023;-70
2022/09/05 06:49:13;;;;;;;18.33;8.48;;;22.10;99.90;;;;;;4991687;28;20092;-67
2022/09/05 06:51:59;;;;;;;19.77;8.38;;;22.20;99.90;;;;;;4992826;28;20019;-68
2022/09/05 06:54:31;;;;;;;15.82;7.97;;;22.30;99.90;;;;;;4993454;28;20030;-67
2022/09/05 06:57:25;;;;;;;17.00;7.97;;;22.30;99.90;;;;;;4991524;28;20114;-68
2022/09/05 07:00:10;;;;;;;15.95;8.05;;;22.40;99.90;;;;;;4994045;28;20030;-68
2022/09/05 07:02:43;;;;;;;14.95;8.05;;;22.40;99.90;;;;;;4992181;28;20030;-68
2022/09/05 07:05:40;;;;;;;19.30;8.95;;;22.40;99.90;;;;;;4993812;28;20037;-68
2022/09/05 07:08:19;;;;;;;18.02;8.52;;;22.40;99.90;;;;;;4993175;28;20507;-67
2022/09/05 07:11:09;;;;;;;16.27;8.52;;;22.50;99.90;;;;;;4990490;28;20387;-67
2022/09/05 07:13:51;;;;;;;17.55;8.07;;;22.60;99.90;;;;;;4993223;28;20464;-68
2022/09/05 07:16:46;;;;;;;16.92;8.57;;;22.70;99.90;;;;;;4993379;28;20026;-67
2022/09/05 07:19:40;;;;;;;16.65;8.68;;;23.00;99.90;;;;;;4989288;28;20030;-67
2022/09/05 07:22:33;;;;;;;16.13;8.10;;;23.40;99.60;;;;;;4993072;28;20030;-67
2022/09/05 07:25:08;;;;;;;12.77;7.28;;;23.80;98.40;;;;;;4992871;28;20372;-67
2022/09/05 07:27:52;;;;;;;12.60;6.82;;;24.10;97.70;;;;;;4993308;28;20465;-67
2022/09/05 07:30:18;;;;;;;11.60;6.95;;;24.50;97.30;;;;;;4993480;28;20085;-69
2022/09/05 07:32:53;;;;;;;11.60;6.95;;;24.90;96.50;;;;;;4992572;28;20448;-70
2022/09/05 07:35:29;;;;;;;12.07;6.88;;;25.40;95.20;;;;;;4993002;28;20022;-67
2022/09/05 07:38:05;;;;;;;12.23;6.43;;;26.20;94.50;;;;;;4993157;28;20444;-68
2022/09/05 07:40:35;;;;;;;13.27;6.90;;;26.90;93.10;;;;;;4993074;28;20448;-69
2022/09/05 07:43:06;;;;;;;10.75;6.25;;;27.60;91.70;;;;;;4992969;28;20022;-67
2022/09/05 07:45:35;;;;;;;11.10;6.20;;;28.50;90.60;;;;;;4993093;28;20448;-67
2022/09/05 07:48:17;;;;;;;11.82;5.97;;;29.50;88.60;;;;;;4993015;28;20109;-69
2022/09/05 07:50:57;;;;;;;10.60;5.55;;;30.50;85.20;;;;;;4993259;28;20054;-67
2022/09/05 07:53:24;;;;;;;13.80;4.97;;;31.00;82.90;;;;;;4993046;28;20100;-67
2022/09/05 07:55:55;;;;;;;9.77;4.85;;;31.70;81.50;;;;;;4995708;28;20034;-70
2022/09/05 07:58:24;;;;;;;10.02;5.20;;;32.10;80.60;;;;;;4996711;28;20025;-68
2022/09/05 08:00:53;;;;;;;9.45;5.43;;;32.60;78.30;;;;;;4996865;28;20026;-67
2022/09/05 08:03:25;;;;;;;9.13;5.10;;;33.00;76.90;;;;;;4990823;28;20034;-69
2022/09/05 08:05:55;;;;;;;11.13;4.90;;;33.40;76.00;;;;;;4996128;28;20018;-70
2022/09/05 08:08:27;;;;;;;9.40;4.72;;;33.50;75.20;;;;;;4994960;28;20069;-67
2022/09/05 08:11:11;;;;;;;7.53;3.80;;;33.80;73.90;;;;;;4995807;28;20046;-67
2022/09/05 08:13:42;;;;;;;12.63;4.00;;;33.80;72.30;;;;;;4996745;28;20097;-67
2022/09/05 08:16:09;;;;;;;;;;;33.70;72.50;;;;;;4996624;28;20022;-66
2022/09/05 08:18:56;;;;;;;6.78;3.50;;;33.80;72.40;;;;;;4995872;28;19909;-68
2022/09/05 08:21:41;;;;;;;9.93;3.40;;;34.00;72.20;;;;;;4996575;28;20038;-67
2022/09/05 08:24:23;;;;;;;7.95;3.20;;;34.50;70.70;;;;;;4996198;28;20030;-66
2022/09/05 08:27:14;;;;;;;7.43;2.72;;;34.80;69.30;;;;;;4995873;28;20022;-67
2022/09/05 08:29:47;;;;;;;5.60;3.03;;;35.00;67.60;;;;;;4996669;28;20030;-67
2022/09/05 08:32:31;;;;;;;7.97;2.35;;;35.20;67.50;;;;;;4996134;28;20041;-69
2022/09/05 08:35:26;;;;;;;4.03;2.60;;;35.40;67.00;;;;;;4990597;28;20019;-68
2022/09/05 08:37:53;;;;;;;7.32;2.70;;;35.60;66.40;;;;;;4981277;28;20069;-67
2022/09/05 08:40:35;;;;;;;5.50;2.40;;;35.80;66.40;;;;;;4995561;28;20022;-67
2022/09/05 08:43:09;;;;;;;4.88;2.30;;;36.20;65.20;;;;;;4996076;28;20054;-68
2022/09/05 08:46:01;;;;;;;7.15;2.78;;;36.80;63.40;;;;;;4995870;28;20026;-69
2022/09/05 08:48:39;;;;;;;;;;;37.00;61.80;;;;;;4976973;28;20523;-68
2022/09/05 08:51:24;;;;;;;6.88;2.40;;;36.80;60.80;;;;;;4996033;28;19905;-68
2022/09/05 08:54:08;;;;;;;5.53;2.25;;;36.40;61.10;;;;;;4995630;28;20035;-66
2022/09/05 08:56:34;;;;;;;3.08;2.00;;;36.40;61.60;;;;;;4995918;28;20326;-67
2022/09/05 08:59:37;;;;;;;6.15;2.30;;;36.60;61.20;;;;;;4994494;28;20041;-70
2022/09/05 09:02:27;;;;;;;3.08;2.10;;;37.30;60.40;;;;;;4995427;28;20483;-70
2022/09/05 09:04:53;;;;;;;4.32;2.35;;;37.60;59.30;;;;;;4995389;28;20030;-70
2022/09/05 09:07:36;;;;;;;5.80;2.50;;;38.00;58.90;;;;;;4995615;28;20029;-69
2022/09/05 09:10:27;;;;;;;4.65;2.10;;;38.30;58.50;;;;;;4995601;28;20101;-67
2022/09/05 09:13:17;;;;;;;6.18;2.28;;;38.50;58.00;;;;;;4995508;28;20500;-68
2022/09/05 09:15:56;;;;;;;5.53;2.50;;;38.20;57.80;;;;;;4995535;28;20027;-68
2022/09/05 09:18:42;;;;;;;6.88;2.15;;;37.60;57.60;;;;;;4994448;28;20065;-66
2022/09/05 09:21:27;;;;;;;6.75;2.20;;;37.30;59.00;;;;;;4995546;28;20085;-69
2022/09/05 09:24:34;;;;;;;5.93;2.03;;;37.70;57.70;;;;;;4995233;28;20034;-67
2022/09/05 09:27:18;;;;;;;6.53;2.25;;;37.70;57.40;;;;;;4995783;28;20029;-72
2022/09/05 09:29:44;;;;;;;7.45;2.20;;;37.00;58.40;;;;;;4995319;28;20543;-67
2022/09/05 09:32:16;;;;;;;8.85;2.30;;;37.00;58.00;;;;;;4995814;28;20113;-68
2022/09/05 09:34:55;;;;;;;4.55;2.10;;;37.70;58.00;;;;;;4995407;28;20029;-69
2022/09/05 09:37:40;;;;;;;6.65;1.90;;;38.50;57.50;;;;;;4995143;28;20030;-71
2022/09/05 09:40:24;;;;;;;4.15;1.95;;;39.30;56.30;;;;;;4995039;28;20033;-68
2022/09/05 09:42:56;;;;;;;9.15;1.90;;;39.50;55.10;;;;;;4994919;28;20361;-67
2022/09/05 09:45:24;;;;;;;3.83;1.80;;;39.60;54.90;;;;;;4994985;28;20030;-69
2022/09/05 09:48:22;;;;;;;6.60;1.75;;;39.90;54.70;;;;;;4993294;28;20094;-67
2022/09/05 09:51:13;;;;;;;4.38;1.90;;;40.00;53.50;;;;;;4971867;28;20046;-66
2022/09/05 09:53:51;;;;;;;;;;;40.20;53.70;;;;;;4995489;28;20061;-70
2022/09/05 09:56:52;;;;;;;4.88;1.80;;;40.50;53.00;;;;;;4994981;28;19945;-69
2022/09/05 09:59:39;;;;;;;3.67;1.75;;;40.20;52.70;;;;;;4994897;28;20033;-69
2022/09/05 10:02:35;;;;;;;5.85;2.00;;;39.90;53.20;;;;;;4994882;28;20094;-68
2022/09/05 10:05:31;;;;;;;3.50;2.30;;;39.40;53.00;;;;;;4994687;28;20041;-68
2022/09/05 10:08:21;;;;;;;6.72;1.85;;;39.40;53.40;;;;;;4994573;28;20015;-67
2022/09/05 10:10:58;;;;;;;2.67;1.85;;;39.90;52.60;;;;;;4994221;28;20141;-69
2022/09/05 10:13:48;;;;;;;5.68;2.40;;;39.60;53.30;;;;;;4994709;28;20025;-67
2022/09/05 10:16:26;;;;;;;5.45;2.30;;;39.30;53.60;;;;;;4994321;28;20022;-67
2022/09/05 10:19:29;;;;;;;5.32;2.20;;;39.40;53.70;;;;;;4993536;28;20453;-66
2022/09/05 10:22:05;;;;;;;4.88;2.22;;;39.20;53.40;;;;;;4994131;28;20376;-68
2022/09/05 10:25:06;;;;;;;8.45;1.98;;;38.70;53.90;;;;;;4994271;28;20038;-67
2022/09/05 10:27:44;;;;;;;3.33;1.77;;;38.60;54.40;;;;;;4993907;28;20342;-67
2022/09/05 10:30:15;;;;;;;6.85;1.77;;;38.50;54.10;;;;;;4994103;28;20483;-67
2022/09/05 10:32:56;;;;;;;3.80;1.83;;;38.50;53.80;;;;;;4994163;28;20045;-67
2022/09/05 10:35:30;;;;;;;2.55;1.60;;;38.40;53.60;;;;;;4994440;28;20026;-68
2022/09/05 10:38:11;;;;;;;7.03;1.98;;;38.50;53.60;;;;;;4993805;28;20027;-69
2022/09/05 10:40:43;;;;;;;3.80;1.80;;;38.50;54.30;;;;;;4992959;28;20038;-69
2022/09/05 10:43:22;;;;;;;4.18;1.77;;;38.80;53.80;;;;;;4994259;28;20022;-69
2022/09/05 10:45:59;;;;;;;9.20;1.70;;;39.10;53.50;;;;;;4993505;28;20023;-67
2022/09/05 10:48:44;;;;;;;5.05;1.70;;;39.20;53.10;;;;;;4992495;28;20073;-68
2022/09/05 10:51:28;;;;;;;3.55;1.83;;;39.70;53.00;;;;;;4993843;28;20029;-67
2022/09/05 10:54:26;;;;;;;6.03;1.60;;;40.20;52.40;;;;;;4993969;28;20057;-69
2022/09/05 10:57:19;;;;;;;2.95;1.70;;;40.20;52.20;;;;;;4993682;28;20026;-66
2022/09/05 11:00:07;;;;;;;5.13;1.80;;;39.90;52.40;;;;;;4993798;28;20030;-69
2022/09/05 11:02:40;;;;;;;5.18;1.50;;;39.90;52.00;;;;;;4993497;28;20023;-67
2022/09/05 11:05:25;;;;;;;4.60;1.88;;;40.00;52.10;;;;;;4991801;28;20026;-67
2022/09/05 11:08:09;;;;;;;4.35;1.70;;;40.10;51.60;;;;;;4993724;28;20376;-70
2022/09/05 11:11:02;;;;;;;6.07;2.03;;;39.80;51.50;;;;;;4993547;28;20038;-67
2022/09/05 11:13:49;;;;;;;6.00;1.63;;;40.00;51.20;;;;;;4992882;28;20392;-68
2022/09/05 11:16:34;;;;;;;4.90;1.60;;;39.70;50.90;;;;;;4993389;28;20387;-68
2022/09/05 11:19:16;;;;;;;3.40;1.30;;;39.10;51.70;;;;;;4987867;28;20547;-69
2022/09/05 11:21:45;;;;;;;5.15;1.67;;;38.50;51.40;;;;;;4993150;28;20022;-68
2022/09/05 11:24:28;;;;;;;7.20;1.45;;;37.70;51.70;;;;;;4993387;28;20181;-69
2022/09/05 11:27:18;;;;;;;4.75;1.70;;;37.40;52.60;;;;;;4993447;28;20022;-67
2022/09/05 11:29:50;;;;;;;3.70;1.48;;;37.40;53.20;;;;;;4993102;28;20121;-68
2022/09/05 11:32:35;;;;;;;5.35;1.67;;;37.40;52.50;;;;;;4993426;28;20437;-67
2022/09/05 11:35:16;;;;;;;2.22;1.90;;;37.50;52.60;;;;;;4993512;28;20034;-67
2022/09/05 11:37:57;;;;;;;4.78;1.75;;;37.40;52.70;;;;;;4993067;28;20029;-66
2022/09/05 11:40:55;;;;;;;5.18;1.70;;;37.60;52.50;;;;;;4992628;28;20428;-68
2022/09/05 11:43:48;;;;;;;3.35;1.60;;;37.70;52.60;;;;;;4993009;28;20030;-68
2022/09/05 11:46:41;;;;;;;6.32;1.98;;;37.70;52.60;;;;;;4991871;28;20022;-65
2022/09/05 11:49:24;;;;;;;4.38;1.70;;;37.80;52.60;;;;;;4992967;28;20483;-67
2022/09/05 11:52:08;;;;;;;5.15;1.80;;;38.00;52.90;;;;;;4993082;28;20018;-67
2022/09/05 11:54:48;;;;;;;4.88;1.80;;;38.10;52.40;;;;;;4993092;28;20023;-66
2022/09/05 11:57:41;;;;;;;5.90;1.42;;;38.10;52.60;;;;;;4992682;28;20034;-66
2022/09/05 12:00:10;;;;;;;10.85;1.80;;;37.70;52.60;;;;;;4992939;28;20049;-66
2022/09/05 12:02:44;;;;;;;1.98;1.30;;;37.40;52.50;;;;;;4992937;28;20030;-66
2022/09/05 12:05:50;;;;;;;2.03;1.40;;;37.40;52.30;;;;;;4993207;28;20038;-68
2022/09/05 12:08:35;;;;;;;6.20;1.88;;;37.20;52.50;;;;;;4992968;28;20121;-68
2022/09/05 12:11:06;;;;;;;2.97;1.73;;;37.10;52.80;;;;;;4992829;28;20042;-66
2022/09/05 12:13:44;;;;;;;6.18;1.67;;;37.10;53.00;;;;;;4992759;28;20023;-69
2022/09/05 12:16:44;;;;;;;4.28;1.58;;;37.00;52.80;;;;;;4993094;28;20033;-70
2022/09/05 12:19:37;;;;;;;4.67;1.77;;;36.80;53.00;;;;;;4985763;28;20031;-70
2022/09/05 12:22:20;;;;;;;4.90;1.83;;;36.90;53.30;;;;;;4992762;28;20030;-67
2022/09/05 12:25:09;;;;;;;4.00;1.77;;;37.00;52.80;;;;;;4992758;28;20038;-67
2022/09/05 12:27:36;;;;;;;3.33;1.60;;;37.20;52.60;;;;;;4986170;28;20401;-67
2022/09/05 12:30:08;;;;;;;6.38;2.17;;;37.30;52.50;;;;;;4992774;28;20022;-67
2022/09/05 12:32:52;;;;;;;2.72;1.50;;;37.40;52.00;;;;;;4991318;28;20070;-66
2022/09/05 12:35:30;;;;;;;5.25;1.95;;;37.20;52.40;;;;;;4992616;28;20030;-66
2022/09/05 12:38:43;;;;;;;1.52;1.35;;;37.20;52.70;;;;;;4992473;28;20381;-67
2022/09/05 12:41:49;;;;;;;3.45;1.45;;;37.70;52.50;;;;;;4951659;28;20027;-69
2022/09/05 12:44:36;;;;;;;2.80;1.90;;;38.20;51.60;;;;;;4935150;29;20150;-68
2022/09/05 12:47:12;;;;;;;3.30;1.42;;;38.60;51.60;;;;;;4974795;28;20035;-67
2022/09/05 12:49:46;;;;;;;2.35;1.23;;;38.50;51.30;;;;;;4976522;28;20026;-68
2022/09/05 12:52:41;;;;;;;2.75;1.33;;;38.30;51.10;;;;;;4976640;28;20524;-67
2022/09/05 12:55:16;;;;;;;3.83;1.60;;;37.80;51.60;;;;;;4976300;28;20101;-68
2022/09/05 12:57:43;;;;;;;5.22;1.65;;;37.30;52.10;;;;;;4976737;28;20433;-68
2022/09/05 13:00:15;;;;;;;7.57;1.70;;;37.00;52.40;;;;;;4976465;28;20023;-70
2022/09/05 13:02:45;;;;;;;2.85;1.52;;;36.70;52.50;;;;;;4982683;28;20029;-67
2022/09/05 13:05:24;;;;;;;2.10;1.52;;;36.50;52.70;;;;;;4995878;28;20110;-66
2022/09/05 13:07:55;;;;;;;5.30;1.80;;;36.20;52.90;;;;;;4995757;28;20049;-68
2022/09/05 13:10:32;;;;;;;4.82;1.50;;;35.80;53.10;;;;;;4995723;28;20438;-66
2022/09/05 13:13:06;;;;;;;5.05;1.65;;;35.50;53.90;;;;;;4995900;28;20026;-65
2022/09/05 13:15:36;;;;;;;9.32;2.50;;;35.30;53.70;;;;;;4995793;28;20037;-68
2022/09/05 13:18:19;;;;;;;5.63;2.22;;;35.10;55.00;;;;;;4995399;28;20033;-67
2022/09/05 13:21:10;;;;;;;5.07;2.03;;;35.20;56.40;;;;;;4994836;28;20031;-66
2022/09/05 13:24:01;;;;;;;5.30;1.97;;;35.30;57.60;;;;;;4995199;28;20022;-66
2022/09/05 13:26:42;;;;;;;7.97;2.15;;;35.40;55.80;;;;;;4995481;28;20036;-67
2022/09/05 13:29:22;;;;;;;3.20;1.67;;;35.30;57.20;;;;;;4994860;28;20122;-69
2022/09/05 13:31:52;;;;;;;2.95;1.60;;;35.20;56.70;;;;;;4995297;28;20055;-69
2022/09/05 13:34:55;;;;;;;6.22;1.90;;;35.20;55.50;;;;;;4995527;28;20172;-67
2022/09/05 13:37:28;;;;;;;4.18;1.80;;;35.20;54.90;;;;;;4995167;28;20037;-68
2022/09/05 13:40:15;;;;;;;5.20;1.95;;;35.00;54.90;;;;;;4995110;28;20019;-67
2022/09/05 13:42:44;;;;;;;7.32;1.95;;;35.00;55.80;;;;;;4995438;28;20030;-67
2022/09/05 13:45:17;;;;;;;5.70;1.73;;;35.00;56.70;;;;;;4995031;28;20049;-67
2022/09/05 13:47:51;;;;;;;4.32;1.50;;;35.00;56.50;;;;;;4995424;28;20035;-67
2022/09/05 13:50:53;;;;;;;8.45;1.95;;;35.00;56.60;;;;;;4995144;28;20555;-67
2022/09/05 13:53:50;;;;;;;5.47;2.20;;;35.10;56.70;;;;;;4993395;28;20035;-69
2022/09/05 13:56:27;;;;;;;7.03;2.45;;;35.20;58.20;;;;;;4995048;28;20026;-67
2022/09/05 13:59:07;;;;;;;9.05;2.00;;;35.20;58.30;;;;;;4995239;28;20034;-68
2022/09/05 14:01:35;;;;;;;4.75;2.00;;;35.40;58.70;;;;;;4995003;28;20022;-72
2022/09/05 14:04:31;;;;;;;7.90;2.40;;;35.40;58.00;;;;;;4995052;28;20467;-66